Mount Zion, Louisiana
Current Conditions -  °F | °C
As of 4:55 AM on Sunday 23 Nov 2014 (Local Time) from KIER Reporting Station
Moderate Rain Moderate Rain  
Wind Chill: 64°   Ceiling: 400
Heat Index: 64°   Visibility: 4mi
Dew Point: 63°   Wind: 3mph
Humidity: 98%   Direction: 130°SE
Pressure: 29.68"   Gusts: NA
Location:  31.6668°N, 92.8023°W
Report Text: KIER 231055Z AUTO 13003KT 4SM RA OVC004 18/17 A2968 RMK AO2 T01750172
Loading
Personal Weather Stations






























Interactive Weather Map New forecast layout! Learn more

10-Day Weather Forecast

Advertisements
Track Severe Weather on mobile